createdAt,value
2023-03-17T00:01:51.206Z,209.87
2023-03-17T00:04:19.347Z,220.80
2023-03-17T00:06:46.542Z,203.33
2023-03-17T00:09:15.829Z,222.20
2023-03-17T00:11:43.566Z,235.20
2023-03-17T00:14:10.828Z,226.60
2023-03-17T00:16:42.927Z,186.87
2023-03-17T00:19:24.208Z,209.17
2023-03-17T00:21:51.651Z,200.03
2023-03-17T00:24:18.366Z,202.30
2023-03-17T00:26:45.090Z,195.07
2023-03-17T00:29:11.931Z,191.13
2023-03-17T00:31:39.549Z,212.03
2023-03-17T00:34:07.801Z,180.80
2023-03-17T00:36:35.377Z,213.87
2023-03-17T00:39:03.627Z,205.47
2023-03-17T00:41:30.541Z,202.30
2023-03-17T00:43:57.403Z,201.63
2023-03-17T00:46:35.332Z,206.37
2023-03-17T00:49:03.716Z,219.13
2023-03-17T00:51:31.121Z,221.50
2023-03-17T00:53:57.849Z,213.67
2023-03-17T00:56:27.900Z,213.37
2023-03-17T00:58:54.789Z,206.13
2023-03-17T01:01:21.528Z,203.70
2023-03-17T01:03:48.292Z,225.07
2023-03-17T01:06:16.496Z,219.50
2023-03-17T01:08:44.746Z,189.77
2023-03-17T01:11:17.807Z,192.93
2023-03-17T01:13:47.651Z,232.23
2023-03-17T01:16:15.754Z,212.60
2023-03-17T01:18:43.330Z,211.90
2023-03-17T01:21:10.101Z,211.47
2023-03-17T01:23:37.408Z,220.57
2023-03-17T01:26:04.243Z,235.20
2023-03-17T01:28:30.960Z,235.73
2023-03-17T01:30:57.816Z,225.07
2023-03-17T01:33:25.529Z,210.50
2023-03-17T01:35:52.479Z,225.90
2023-03-17T01:38:19.307Z,232.07
2023-03-17T01:40:51.176Z,222.40
2023-03-17T01:43:27.658Z,211.63
2023-03-17T01:46:29.941Z,201.17
2023-03-17T01:49:12.623Z,202.23
2023-03-17T01:51:54.479Z,217.77
2023-03-17T01:54:50.562Z,207.83
2023-03-17T01:57:21.326Z,210.03
2023-03-17T01:59:55.318Z,222.73
2023-03-17T02:02:30.869Z,221.77
2023-03-17T02:04:58.836Z,202.87
2023-03-17T02:07:26.974Z,221.30
2023-03-17T02:09:55.698Z,199.97
2023-03-17T02:12:24.651Z,208.97
2023-03-17T02:14:52.661Z,194.67
2023-03-17T02:17:22.062Z,225.30
2023-03-17T02:19:49.510Z,205.57
2023-03-17T02:22:19.015Z,212.97
2023-03-17T02:24:47.655Z,193.97
2023-03-17T02:27:23.932Z,193.50
2023-03-17T02:29:53.740Z,214.93
2023-03-17T02:32:20.891Z,188.47
2023-03-17T02:34:48.567Z,186.27
2023-03-17T02:37:16.716Z,204.20
2023-03-17T02:39:44.404Z,185.83
2023-03-17T02:42:12.661Z,190.50
2023-03-17T02:44:40.489Z,198.60
2023-03-17T02:47:08.456Z,218.10
2023-03-17T02:49:36.619Z,185.83
2023-03-17T02:52:03.857Z,201.33
2023-03-17T02:54:30.795Z,205.97
2023-03-17T02:56:57.568Z,200.13
2023-03-17T02:59:24.278Z,204.23
2023-03-17T03:01:51.274Z,234.23
2023-03-17T03:04:19.171Z,201.33
2023-03-17T03:06:47.633Z,206.93
2023-03-17T03:09:15.368Z,213.23
2023-03-17T03:11:42.901Z,202.43
2023-03-17T03:14:10.312Z,205.47
2023-03-17T03:16:37.686Z,231.30
2023-03-17T03:19:05.427Z,201.47
2023-03-17T03:21:32.520Z,208.30
2023-03-17T03:23:59.538Z,231.07
2023-03-17T03:26:27.269Z,220.77
2023-03-17T03:28:54.175Z,194.77
2023-03-17T03:31:21.238Z,233.80
2023-03-17T03:33:48.010Z,218.77
2023-03-17T03:36:15.099Z,224.30
2023-03-17T03:38:42.562Z,209.40
2023-03-17T03:41:09.793Z,200.33
2023-03-17T03:43:36.715Z,201.63
2023-03-17T03:46:04.752Z,202.03
2023-03-17T03:48:31.637Z,187.33
2023-03-17T03:51:01.282Z,201.13
2023-03-17T03:53:28.868Z,197.30
2023-03-17T03:55:56.397Z,205.00
2023-03-17T03:58:23.556Z,193.43
2023-03-17T04:00:50.337Z,193.13
2023-03-17T04:03:17.244Z,203.57
2023-03-17T04:05:44.328Z,235.53
2023-03-17T04:08:11.595Z,196.17
2023-03-17T04:10:38.494Z,210.47
2023-03-17T04:13:05.301Z,212.33
2023-03-17T04:15:32.954Z,197.53
2023-03-17T04:17:59.745Z,209.03
2023-03-17T04:20:26.651Z,203.63
2023-03-17T04:22:53.457Z,191.57
2023-03-17T04:25:20.246Z,178.97
2023-03-17T04:27:47.173Z,202.93
2023-03-17T04:30:16.592Z,179.17
2023-03-17T04:32:44.684Z,173.83
2023-03-17T04:35:17.530Z,191.40
2023-03-17T04:37:44.703Z,179.13
2023-03-17T04:40:13.276Z,177.20
2023-03-17T04:42:40.581Z,184.57
2023-03-17T04:45:09.673Z,183.97
2023-03-17T04:47:37.214Z,197.10
2023-03-17T04:50:04.896Z,199.63
2023-03-17T04:52:31.642Z,187.33
2023-03-17T04:54:58.442Z,179.73
2023-03-17T04:57:25.452Z,193.07
2023-03-17T04:59:52.319Z,192.60
2023-03-17T05:02:19.271Z,178.57
2023-03-17T05:04:46.565Z,194.90
2023-03-17T05:07:13.772Z,189.97
2023-03-17T05:09:40.970Z,186.87
2023-03-17T05:12:09.110Z,185.20
2023-03-17T05:14:36.699Z,179.60
2023-03-17T05:17:03.663Z,188.67
2023-03-17T05:19:30.654Z,171.60
2023-03-17T05:21:57.366Z,188.97
2023-03-17T05:24:24.083Z,171.13
2023-03-17T05:26:50.837Z,196.93
2023-03-17T05:29:17.650Z,196.87
2023-03-17T05:31:44.445Z,187.13
2023-03-17T05:34:11.221Z,184.43
2023-03-17T05:36:38.038Z,175.73
2023-03-17T05:39:05.086Z,194.60
2023-03-17T05:41:31.981Z,185.40
2023-03-17T05:43:58.831Z,179.33
2023-03-17T05:46:26.457Z,186.77
2023-03-17T05:48:53.214Z,183.70
2023-03-17T05:51:21.223Z,169.90
2023-03-17T05:53:47.911Z,174.87
2023-03-17T05:56:14.652Z,200.63
2023-03-17T05:58:41.640Z,183.70
2023-03-17T06:01:08.446Z,188.40
2023-03-17T06:03:38.309Z,185.43
2023-03-17T06:06:05.842Z,186.03
2023-03-17T06:08:32.580Z,204.30
2023-03-17T06:10:59.334Z,200.57
2023-03-17T06:13:26.126Z,175.00
2023-03-17T06:15:52.965Z,182.10
2023-03-17T06:18:19.965Z,199.67
2023-03-17T06:20:46.909Z,180.63
2023-03-17T06:23:13.816Z,206.23
2023-03-17T06:25:40.708Z,180.53
2023-03-17T06:28:07.565Z,184.77
2023-03-17T06:30:35.306Z,200.03
2023-03-17T06:33:03.670Z,183.23
2023-03-17T06:35:31.063Z,191.13
2023-03-17T06:37:58.111Z,179.17
2023-03-17T06:40:24.996Z,191.70
2023-03-17T06:42:52.107Z,193.57
2023-03-17T06:45:18.948Z,190.23
2023-03-17T06:47:46.316Z,184.23
2023-03-17T06:50:13.321Z,205.47
2023-03-17T06:52:40.842Z,196.23
2023-03-17T06:55:08.566Z,191.23
2023-03-17T06:57:36.439Z,214.93
2023-03-17T07:00:06.368Z,198.53
2023-03-17T07:02:34.179Z,194.60
2023-03-17T07:05:01.238Z,206.90
2023-03-17T07:07:28.237Z,211.33
2023-03-17T07:09:55.151Z,234.33
2023-03-17T07:12:22.135Z,241.77
2023-03-17T07:14:48.879Z,199.13
2023-03-17T07:17:15.709Z,206.23
2023-03-17T07:19:43.568Z,251.40
2023-03-17T07:22:12.314Z,256.80
2023-03-17T07:24:39.735Z,224.43
2023-03-17T07:27:06.975Z,246.33
2023-03-17T07:29:34.537Z,259.00
2023-03-17T07:32:01.425Z,216.17
2023-03-17T07:34:29.202Z,230.87
2023-03-17T07:36:56.137Z,263.90
2023-03-17T07:39:22.945Z,231.83
2023-03-17T07:41:55.016Z,225.43
2023-03-17T07:44:23.092Z,221.60
2023-03-17T07:46:51.466Z,223.93
2023-03-17T07:49:34.039Z,213.27
2023-03-17T07:52:08.361Z,237.00
2023-03-17T07:54:36.260Z,266.83
2023-03-17T07:57:04.335Z,247.30
2023-03-17T07:59:31.531Z,259.90
2023-03-17T08:02:00.032Z,245.83
2023-03-17T08:04:27.797Z,272.77
2023-03-17T08:06:54.630Z,279.23
2023-03-17T08:09:24.841Z,272.57
2023-03-17T08:11:52.073Z,277.83
2023-03-17T08:14:19.591Z,295.97
2023-03-17T08:16:46.411Z,313.40
2023-03-17T08:19:13.396Z,347.43
2023-03-17T08:21:40.265Z,307.33
2023-03-17T08:24:07.215Z,340.97
2023-03-17T08:26:34.433Z,365.83
2023-03-17T08:29:01.390Z,418.07
2023-03-17T08:31:28.514Z,404.37
2023-03-17T08:33:57.016Z,408.80
2023-03-17T08:36:24.469Z,422.30
2023-03-17T08:38:51.689Z,421.83
2023-03-17T08:41:21.711Z,426.10
2023-03-17T08:43:48.800Z,463.07
2023-03-17T08:46:30.490Z,473.57
2023-03-17T08:48:58.473Z,475.27
2023-03-17T08:51:28.451Z,477.07
2023-03-17T08:53:55.566Z,507.97
2023-03-17T08:56:23.068Z,506.97
2023-03-17T08:58:50.844Z,501.90
2023-03-17T09:01:18.266Z,529.60
2023-03-17T09:03:45.573Z,547.27
2023-03-17T09:06:13.482Z,552.10
2023-03-17T09:08:44.847Z,526.53
2023-03-17T09:11:14.738Z,511.70
2023-03-17T09:13:41.576Z,506.10
2023-03-17T09:16:08.859Z,507.30
2023-03-17T09:18:35.898Z,508.90
2023-03-17T09:21:03.639Z,526.67
2023-03-17T09:23:30.861Z,543.33
2023-03-17T09:25:57.890Z,567.57
2023-03-17T09:28:24.761Z,552.03
2023-03-17T09:30:52.764Z,533.70
2023-03-17T09:33:19.521Z,558.17
2023-03-17T09:35:46.587Z,550.97
2023-03-17T09:38:13.712Z,563.20
2023-03-17T09:40:48.183Z,561.07
2023-03-17T09:43:37.036Z,558.60
2023-03-17T09:46:44.999Z,531.23
2023-03-17T09:49:22.913Z,558.03
2023-03-17T09:51:50.066Z,554.33
2023-03-17T09:54:26.223Z,608.97
2023-03-17T09:57:21.634Z,655.07
2023-03-17T09:59:51.901Z,604.90
2023-03-17T10:02:30.752Z,646.47
2023-03-17T10:04:58.408Z,664.17
2023-03-17T10:07:49.588Z,666.10
2023-03-17T10:10:49.474Z,674.77
2023-03-17T10:13:44.493Z,689.03
2023-03-17T10:16:36.436Z,686.67
2023-03-17T10:19:07.224Z,677.93
2023-03-17T10:21:37.570Z,676.80
2023-03-17T10:24:05.407Z,654.20
2023-03-17T10:26:41.957Z,651.83
2023-03-17T10:29:16.364Z,662.07
2023-03-17T10:31:43.637Z,665.73
2023-03-17T10:34:26.092Z,689.00
2023-03-17T10:37:07.648Z,695.93
2023-03-17T10:39:46.120Z,716.97
2023-03-17T10:42:24.611Z,748.07
2023-03-17T10:44:58.117Z,767.07
2023-03-17T10:47:26.450Z,796.00
2023-03-17T10:49:54.864Z,762.43
2023-03-17T10:52:30.078Z,745.43
2023-03-17T10:55:13.325Z,788.60
2023-03-17T10:57:49.473Z,789.30
2023-03-17T11:00:22.199Z,795.90
2023-03-17T11:02:59.634Z,721.03
2023-03-17T11:05:29.068Z,711.77
2023-03-17T11:08:14.930Z,695.77
2023-03-17T11:10:41.944Z,689.07
2023-03-17T11:13:10.368Z,744.63
2023-03-17T11:15:46.178Z,754.73
2023-03-17T11:18:33.425Z,724.37
2023-03-17T11:21:07.776Z,758.00
2023-03-17T11:24:09.289Z,735.37
2023-03-17T11:27:02.475Z,660.07
2023-03-17T11:29:43.059Z,675.33
2023-03-17T11:32:54.911Z,676.90
2023-03-17T11:35:44.170Z,640.73
2023-03-17T11:38:19.540Z,718.23
2023-03-17T11:40:58.635Z,717.33
2023-03-17T11:43:40.310Z,755.20
2023-03-17T11:46:13.220Z,784.43
2023-03-17T11:49:10.224Z,778.63
2023-03-17T11:51:59.157Z,766.77
2023-03-17T11:54:54.372Z,761.43
2023-03-17T11:57:46.546Z,736.83
2023-03-17T12:00:27.521Z,716.80
2023-03-17T12:03:08.404Z,746.33
2023-03-17T12:05:37.281Z,734.10
2023-03-17T12:08:12.294Z,722.40
2023-03-17T12:10:50.445Z,745.10
2023-03-17T12:13:25.349Z,795.70
2023-03-17T12:16:21.218Z,724.30
2023-03-17T12:19:11.464Z,711.00
2023-03-17T12:21:59.194Z,703.93
2023-03-17T12:24:40.300Z,690.87
2023-03-17T12:27:28.779Z,722.33
2023-03-17T12:30:05.323Z,683.87
2023-03-17T12:32:44.134Z,785.53
2023-03-17T12:35:34.023Z,656.43
2023-03-17T12:38:07.927Z,666.10
2023-03-17T12:41:13.178Z,654.10
2023-03-17T12:43:46.776Z,624.27
2023-03-17T12:46:30.601Z,616.33
2023-03-17T12:49:36.638Z,663.53
2023-03-17T12:52:29.785Z,657.20
2023-03-17T12:55:01.330Z,569.47
2023-03-17T12:57:37.423Z,665.83
2023-03-17T13:00:19.162Z,648.13
2023-03-17T13:02:51.285Z,648.47
2023-03-17T13:05:32.493Z,646.63
2023-03-17T13:08:02.293Z,629.10
2023-03-17T13:10:40.729Z,658.77
2023-03-17T13:13:08.784Z,647.13
2023-03-17T13:15:36.120Z,622.80
2023-03-17T13:18:18.341Z,642.33
2023-03-17T13:21:08.012Z,609.20
2023-03-17T13:23:40.062Z,624.27
2023-03-17T13:26:06.986Z,623.03
2023-03-17T13:28:36.824Z,621.10
2023-03-17T13:31:27.639Z,610.13
2023-03-17T13:33:56.625Z,661.77
2023-03-17T13:36:32.413Z,656.30
2023-03-17T13:39:26.667Z,703.27
2023-03-17T13:42:38.396Z,643.63
2023-03-17T13:45:14.164Z,654.33
2023-03-17T13:47:42.464Z,675.47
2023-03-17T13:50:14.694Z,691.67
2023-03-17T13:52:53.149Z,702.70
2023-03-17T13:55:20.482Z,689.33
2023-03-17T13:58:06.182Z,692.83
2023-03-17T14:00:35.153Z,683.53
2023-03-17T14:03:06.642Z,696.10
2023-03-17T14:05:37.820Z,682.93
2023-03-17T14:08:22.181Z,703.00
2023-03-17T14:11:00.871Z,710.20
2023-03-17T14:13:46.362Z,701.87
2023-03-17T14:16:24.357Z,689.20
2023-03-17T14:19:28.813Z,705.50
2023-03-17T14:22:02.737Z,710.83
2023-03-17T14:24:32.347Z,714.20
2023-03-17T14:27:07.528Z,706.80
2023-03-17T14:29:34.814Z,704.33
2023-03-17T14:32:16.003Z,709.53
2023-03-17T14:34:54.351Z,659.50
2023-03-17T14:37:21.390Z,650.10
2023-03-17T14:39:52.148Z,639.90
2023-03-17T14:42:25.678Z,627.27
2023-03-17T14:45:01.450Z,665.67
2023-03-17T14:47:28.990Z,675.63
2023-03-17T14:49:55.893Z,699.57
2023-03-17T14:52:28.559Z,716.37
2023-03-17T14:54:59.124Z,695.97
2023-03-17T14:57:32.937Z,706.90
2023-03-17T15:00:04.258Z,709.47
2023-03-17T15:02:36.033Z,702.33
2023-03-17T15:05:28.637Z,719.63
2023-03-17T15:07:55.493Z,707.80
2023-03-17T15:10:25.820Z,650.00
2023-03-17T15:13:01.629Z,652.03
2023-03-17T15:15:33.964Z,691.93
2023-03-17T15:18:07.350Z,683.53
2023-03-17T15:20:35.326Z,663.67
2023-03-17T15:23:24.931Z,674.60
2023-03-17T15:25:57.862Z,621.87
2023-03-17T15:28:28.306Z,600.77
2023-03-17T15:31:10.082Z,605.93
2023-03-17T15:33:39.108Z,608.10
2023-03-17T15:36:06.465Z,571.40
2023-03-17T15:38:34.328Z,566.83
2023-03-17T15:41:01.123Z,623.50
2023-03-17T15:43:27.935Z,793.90
2023-03-17T15:46:00.679Z,835.45
2023-03-17T15:48:29.824Z,702.80
2023-03-17T15:50:59.910Z,657.23
2023-03-17T15:53:27.651Z,662.13
2023-03-17T15:55:54.632Z,665.53
2023-03-17T15:58:21.553Z,655.17
2023-03-17T16:00:52.694Z,680.63
2023-03-17T16:03:34.199Z,671.20
2023-03-17T16:06:02.924Z,660.37
2023-03-17T16:08:30.597Z,662.77
2023-03-17T16:10:57.496Z,663.13
2023-03-17T16:13:24.319Z,653.37
2023-03-17T16:15:56.267Z,628.40
2023-03-17T16:18:34.601Z,616.13
2023-03-17T16:21:02.790Z,599.67
2023-03-17T16:23:32.478Z,640.53
2023-03-17T16:26:13.801Z,650.47
2023-03-17T16:28:42.460Z,661.93
2023-03-17T16:31:28.216Z,657.33
2023-03-17T16:33:55.542Z,615.03
2023-03-17T16:36:23.756Z,649.90
2023-03-17T16:38:51.132Z,668.93
2023-03-17T16:41:24.323Z,657.57
2023-03-17T16:43:55.093Z,668.50
2023-03-17T16:46:22.393Z,673.57
2023-03-17T16:48:50.642Z,661.37
2023-03-17T16:51:18.007Z,659.30
2023-03-17T16:53:45.672Z,633.40
2023-03-17T16:56:19.033Z,670.07
2023-03-17T16:58:46.760Z,658.13
2023-03-17T17:01:22.423Z,655.07
2023-03-17T17:03:50.200Z,629.87
2023-03-17T17:06:18.668Z,637.00
2023-03-17T17:08:47.553Z,637.97
2023-03-17T17:11:15.845Z,629.10
2023-03-17T17:13:44.316Z,643.97
2023-03-17T17:16:26.739Z,634.60
2023-03-17T17:18:53.874Z,635.50
2023-03-17T17:21:20.593Z,652.70
2023-03-17T17:23:47.730Z,648.13
2023-03-17T17:26:14.616Z,655.40
2023-03-17T17:28:41.404Z,663.53
2023-03-17T17:31:08.956Z,655.43
2023-03-17T17:33:36.868Z,639.97
2023-03-17T17:36:06.053Z,609.63
2023-03-17T17:38:32.981Z,614.57
2023-03-17T17:41:05.790Z,632.17
2023-03-17T17:43:33.151Z,596.57
2023-03-17T17:46:00.324Z,617.40
2023-03-17T17:48:28.368Z,625.73
2023-03-17T17:50:56.522Z,623.57
2023-03-17T17:53:23.664Z,607.47
2023-03-17T17:55:51.510Z,634.43
2023-03-17T17:58:21.501Z,634.37
2023-03-17T18:00:48.840Z,623.90
2023-03-17T18:03:15.956Z,605.13
2023-03-17T18:05:43.121Z,609.53
2023-03-17T18:08:14.349Z,609.27
2023-03-17T18:10:41.488Z,594.20
2023-03-17T18:13:08.608Z,613.80
2023-03-17T18:15:35.561Z,602.07
2023-03-17T18:18:02.336Z,596.27
2023-03-17T18:20:30.171Z,587.23
2023-03-17T18:22:57.692Z,597.57
2023-03-17T18:25:27.718Z,611.27
2023-03-17T18:27:56.809Z,573.90
2023-03-17T18:30:27.764Z,576.17
2023-03-17T18:32:58.939Z,570.83
2023-03-17T18:35:27.078Z,597.23
2023-03-17T18:37:55.294Z,605.70
2023-03-17T18:40:22.138Z,588.50
2023-03-17T18:42:48.950Z,595.53
2023-03-17T18:45:16.726Z,555.60
2023-03-17T18:47:43.528Z,595.90
2023-03-17T18:50:13.209Z,605.00
2023-03-17T18:52:41.892Z,592.67
2023-03-17T18:55:11.077Z,597.77
2023-03-17T18:57:37.957Z,583.00
2023-03-17T19:00:06.186Z,582.37
2023-03-17T19:02:33.279Z,587.43
2023-03-17T19:05:00.722Z,596.57
2023-03-17T19:07:27.519Z,600.17
2023-03-17T19:09:54.317Z,603.63
2023-03-17T19:12:21.058Z,607.97
2023-03-17T19:14:47.826Z,591.33
2023-03-17T19:17:14.758Z,603.17
2023-03-17T19:19:41.772Z,607.47
2023-03-17T19:22:09.485Z,578.57
2023-03-17T19:24:37.538Z,592.57
2023-03-17T19:27:05.155Z,610.47
2023-03-17T19:29:32.736Z,591.73
2023-03-17T19:32:00.135Z,580.87
2023-03-17T19:34:27.253Z,596.90
2023-03-17T19:36:54.354Z,579.77
2023-03-17T19:39:22.001Z,547.53
2023-03-17T19:41:52.723Z,547.40
2023-03-17T19:44:19.509Z,542.73
2023-03-17T19:46:46.264Z,518.40
2023-03-17T19:49:13.039Z,533.43
2023-03-17T19:51:41.838Z,513.40
2023-03-17T19:54:11.097Z,545.33
2023-03-17T19:56:38.681Z,550.30
2023-03-17T19:59:07.304Z,528.13
2023-03-17T20:01:34.380Z,526.80
2023-03-17T20:04:01.461Z,556.23
2023-03-17T20:06:28.286Z,565.77
2023-03-17T20:08:55.157Z,554.30
2023-03-17T20:11:21.863Z,541.73
2023-03-17T20:13:48.677Z,549.60
2023-03-17T20:16:16.493Z,498.03
2023-03-17T20:18:43.321Z,495.27
2023-03-17T20:21:13.680Z,511.40
2023-03-17T20:23:40.790Z,499.23
2023-03-17T20:26:08.323Z,507.83
2023-03-17T20:28:35.837Z,525.93
2023-03-17T20:31:04.348Z,528.93
2023-03-17T20:33:33.505Z,538.77
2023-03-17T20:36:01.802Z,538.07
2023-03-17T20:38:29.060Z,526.33
2023-03-17T20:41:12.465Z,521.27
2023-03-17T20:43:40.235Z,540.40
2023-03-17T20:46:09.049Z,542.10
2023-03-17T20:48:37.192Z,538.50
2023-03-17T20:51:06.309Z,547.80
2023-03-17T20:53:34.227Z,544.93
2023-03-17T20:56:01.153Z,556.63
2023-03-17T20:58:28.829Z,560.07
2023-03-17T21:00:56.976Z,525.90
2023-03-17T21:03:23.872Z,539.43
2023-03-17T21:05:51.071Z,557.33
2023-03-17T21:08:18.872Z,563.57
2023-03-17T21:10:45.682Z,561.17
2023-03-17T21:13:12.617Z,562.77
2023-03-17T21:15:39.428Z,570.53
2023-03-17T21:18:06.742Z,572.43
2023-03-17T21:20:33.815Z,564.10
2023-03-17T21:23:03.202Z,556.97
2023-03-17T21:25:30.173Z,567.33
2023-03-17T21:27:56.981Z,546.60
2023-03-17T21:30:23.713Z,550.43
2023-03-17T21:32:50.559Z,583.90
2023-03-17T21:35:18.107Z,494.83
2023-03-17T21:37:44.946Z,485.83
2023-03-17T21:40:15.550Z,469.20
2023-03-17T21:42:42.451Z,470.57
2023-03-17T21:45:09.726Z,476.10
2023-03-17T21:47:36.488Z,504.17
2023-03-17T21:50:05.129Z,505.97
2023-03-17T21:52:32.046Z,498.40
2023-03-17T21:54:59.564Z,485.23
2023-03-17T21:57:27.648Z,501.83
2023-03-17T21:59:54.384Z,468.50
2023-03-17T22:02:21.378Z,488.90
2023-03-17T22:04:48.739Z,495.37
2023-03-17T22:07:16.635Z,488.40
2023-03-17T22:09:44.093Z,469.43
2023-03-17T22:12:11.925Z,493.07
2023-03-17T22:14:38.856Z,715.08
2023-03-17T22:17:06.777Z,551.10
2023-03-17T22:19:33.517Z,889.78
2023-03-17T22:22:00.298Z,598.03
2023-03-17T22:24:27.095Z,543.83
2023-03-17T22:26:54.075Z,528.93
2023-03-17T22:29:20.866Z,507.33
2023-03-17T22:31:47.722Z,526.57
2023-03-17T22:34:14.572Z,515.30
2023-03-17T22:36:41.567Z,487.20
2023-03-17T22:39:10.405Z,502.83
2023-03-17T22:41:38.509Z,486.40
2023-03-17T22:44:08.296Z,492.80
2023-03-17T22:46:36.078Z,485.20
2023-03-17T22:49:02.861Z,495.60
2023-03-17T22:51:29.638Z,488.83
2023-03-17T22:53:57.024Z,482.90
2023-03-17T22:56:24.939Z,480.10
2023-03-17T22:58:52.296Z,474.43
2023-03-17T23:01:20.494Z,488.50
2023-03-17T23:03:47.438Z,484.03
2023-03-17T23:06:14.841Z,485.60
2023-03-17T23:08:43.147Z,480.53
2023-03-17T23:11:22.177Z,480.90
2023-03-17T23:13:50.464Z,468.87
2023-03-17T23:16:17.249Z,474.00
2023-03-17T23:18:46.842Z,481.93
2023-03-17T23:21:26.563Z,465.37
2023-03-17T23:23:53.456Z,434.97
2023-03-17T23:26:20.587Z,470.27
2023-03-17T23:28:47.558Z,454.47
2023-03-17T23:31:15.859Z,465.07
2023-03-17T23:33:43.717Z,467.70
2023-03-17T23:36:10.872Z,464.40
2023-03-17T23:38:37.649Z,465.47
2023-03-17T23:41:04.707Z,463.97
2023-03-17T23:43:31.668Z,450.27
2023-03-17T23:45:58.446Z,460.33
2023-03-17T23:48:25.189Z,456.10
2023-03-17T23:50:52.852Z,458.50
2023-03-17T23:53:20.934Z,461.00
2023-03-17T23:55:47.947Z,449.77
2023-03-17T23:58:15.528Z,441.93
